createdAt,value
2018-09-23T00:00:01.023Z,8.67
2018-09-23T00:02:29.610Z,7.83
2018-09-23T00:04:58.132Z,8.03
2018-09-23T00:07:26.655Z,8.20
2018-09-23T00:09:55.217Z,8.67
2018-09-23T00:12:23.801Z,7.90
2018-09-23T00:14:52.368Z,8.43
2018-09-23T00:17:20.881Z,8.30
2018-09-23T00:19:49.589Z,8.70
2018-09-23T00:22:18.159Z,8.47
2018-09-23T00:24:46.597Z,8.13
2018-09-23T00:27:15.126Z,8.10
2018-09-23T00:29:48.896Z,7.80
2018-09-23T00:32:17.585Z,7.97
2018-09-23T00:34:46.025Z,7.80
2018-09-23T00:37:14.433Z,8.63
2018-09-23T00:39:42.953Z,9.40
2018-09-23T00:42:11.417Z,8.33
2018-09-23T00:44:39.962Z,9.00
2018-09-23T00:47:08.622Z,9.57
2018-09-23T00:49:37.064Z,10.10
2018-09-23T00:52:05.540Z,10.87
2018-09-23T00:54:34.061Z,11.07
2018-09-23T00:57:02.743Z,12.20
2018-09-23T00:59:31.219Z,12.37
2018-09-23T01:01:59.877Z,12.80
2018-09-23T01:04:28.229Z,13.00
2018-09-23T01:06:56.673Z,13.37
2018-09-23T01:09:25.183Z,14.23
2018-09-23T01:11:53.670Z,14.67
2018-09-23T01:14:22.161Z,16.20
2018-09-23T01:16:50.688Z,15.53
2018-09-23T01:19:19.097Z,18.47
2018-09-23T01:21:47.598Z,18.73
2018-09-23T01:24:15.999Z,19.47
2018-09-23T01:26:44.560Z,18.33
2018-09-23T01:29:12.984Z,19.77
2018-09-23T01:31:41.483Z,19.23
2018-09-23T01:34:09.880Z,20.37
2018-09-23T01:36:38.497Z,22.70
2018-09-23T01:39:07.965Z,22.73
2018-09-23T01:41:36.573Z,23.03
2018-09-23T01:44:05.263Z,23.90
2018-09-23T01:46:34.036Z,23.87
2018-09-23T01:49:02.534Z,24.83
2018-09-23T01:51:30.955Z,24.60
2018-09-23T01:53:59.471Z,26.90
2018-09-23T01:56:28.017Z,25.77
2018-09-23T01:58:56.521Z,24.93
2018-09-23T02:01:24.944Z,28.37
2018-09-23T02:03:53.482Z,27.23
2018-09-23T02:06:21.937Z,27.13
2018-09-23T02:08:50.328Z,27.20
2018-09-23T02:11:18.943Z,26.50
2018-09-23T02:13:47.355Z,27.20
2018-09-23T02:16:15.768Z,26.37
2018-09-23T02:18:44.136Z,27.20
2018-09-23T02:21:11.599Z,25.37
2018-09-23T02:23:39.987Z,26.03
2018-09-23T02:26:08.456Z,25.13
2018-09-23T02:28:36.900Z,23.63
2018-09-23T02:31:05.463Z,24.73
2018-09-23T02:33:33.926Z,25.03
2018-09-23T02:36:02.380Z,23.57
2018-09-23T02:38:30.864Z,23.73
2018-09-23T02:40:59.438Z,22.57
2018-09-23T02:43:27.866Z,22.80
2018-09-23T02:45:56.370Z,21.43
2018-09-23T02:48:24.896Z,21.67
2018-09-23T02:50:53.282Z,21.90
2018-09-23T02:53:21.715Z,19.93
2018-09-23T02:55:50.260Z,22.10
2018-09-23T02:58:18.631Z,20.50
2018-09-23T03:00:47.040Z,19.93
2018-09-23T03:03:15.442Z,20.43
2018-09-23T03:05:45.426Z,19.23
2018-09-23T03:08:14.249Z,20.27
2018-09-23T03:10:42.691Z,19.77
2018-09-23T03:13:11.045Z,20.67
2018-09-23T03:15:39.419Z,20.83
2018-09-23T03:18:07.860Z,20.83
2018-09-23T03:20:36.231Z,20.50
2018-09-23T03:23:04.696Z,18.80
2018-09-23T03:25:33.209Z,20.03
2018-09-23T03:28:01.681Z,19.90
2018-09-23T03:30:30.098Z,19.50
2018-09-23T03:32:58.541Z,20.90
2018-09-23T03:35:27.021Z,19.53
2018-09-23T03:37:55.433Z,20.93
2018-09-23T03:40:23.944Z,20.07
2018-09-23T03:42:52.424Z,20.10
2018-09-23T03:45:20.997Z,21.80
2018-09-23T03:47:49.409Z,20.80
2018-09-23T03:50:17.953Z,21.53
2018-09-23T03:52:46.479Z,23.83
2018-09-23T03:55:15.063Z,23.50
2018-09-23T03:57:43.580Z,24.20
2018-09-23T04:00:11.995Z,24.23
2018-09-23T04:02:40.402Z,25.00
2018-09-23T04:05:08.751Z,25.20
2018-09-23T04:07:37.172Z,27.33
2018-09-23T04:10:05.626Z,27.13
2018-09-23T04:12:34.068Z,26.40
2018-09-23T04:15:02.431Z,27.03
2018-09-23T04:17:30.805Z,27.93
2018-09-23T04:19:59.283Z,28.80
2018-09-23T04:22:27.764Z,28.83
2018-09-23T04:24:56.247Z,27.57
2018-09-23T04:27:24.648Z,27.70
2018-09-23T04:29:53.151Z,28.73
2018-09-23T04:32:21.605Z,26.53
2018-09-23T04:34:50.016Z,28.13
2018-09-23T04:37:18.419Z,26.20
2018-09-23T04:39:46.792Z,26.60
2018-09-23T04:42:15.171Z,26.10
2018-09-23T04:44:43.708Z,26.63
2018-09-23T04:47:12.079Z,26.60
2018-09-23T04:49:40.613Z,26.70
2018-09-23T04:52:09.092Z,24.33
2018-09-23T04:54:37.511Z,24.10
2018-09-23T04:57:05.900Z,24.80
2018-09-23T04:59:34.337Z,25.43
2018-09-23T05:02:02.677Z,26.07
2018-09-23T05:04:31.077Z,25.10
2018-09-23T05:06:59.439Z,25.17
2018-09-23T05:09:27.832Z,24.17
2018-09-23T05:11:56.682Z,23.93
2018-09-23T05:14:25.325Z,24.47
2018-09-23T05:16:53.842Z,25.17
2018-09-23T05:19:22.314Z,27.13
2018-09-23T05:21:50.830Z,26.60
2018-09-23T05:24:19.325Z,28.60
2018-09-23T05:26:47.755Z,28.37
2018-09-23T05:29:16.202Z,27.00
2018-09-23T05:31:44.784Z,28.57
2018-09-23T05:34:13.384Z,27.57
2018-09-23T05:36:41.771Z,28.73
2018-09-23T05:39:11.208Z,28.93
2018-09-23T05:41:39.754Z,29.80
2018-09-23T05:44:09.110Z,29.47
2018-09-23T05:46:37.488Z,31.70
2018-09-23T05:49:06.045Z,28.73
2018-09-23T05:51:34.536Z,29.53
2018-09-23T05:54:03.124Z,29.47
2018-09-23T05:56:31.597Z,31.10
2018-09-23T05:59:00.143Z,31.17
2018-09-23T06:01:28.548Z,30.53
2018-09-23T06:03:57.004Z,28.73
2018-09-23T06:06:25.503Z,29.87
2018-09-23T06:08:54.036Z,30.70
2018-09-23T06:11:22.448Z,31.00
2018-09-23T06:13:50.939Z,30.80
2018-09-23T06:16:19.343Z,31.97
2018-09-23T06:18:47.780Z,30.37
2018-09-23T06:21:16.226Z,31.30
2018-09-23T06:23:44.662Z,32.97
2018-09-23T06:26:13.126Z,32.03
2018-09-23T06:28:41.578Z,30.00
2018-09-23T06:31:10.155Z,29.83
2018-09-23T06:33:38.775Z,30.50
2018-09-23T06:36:07.477Z,30.00
2018-09-23T06:38:35.928Z,30.37
2018-09-23T06:41:04.442Z,29.47
2018-09-23T06:43:32.909Z,28.93
2018-09-23T06:46:01.479Z,29.40
2018-09-23T06:48:29.957Z,29.73
2018-09-23T06:50:58.484Z,29.80
2018-09-23T06:53:27.087Z,28.57
2018-09-23T06:55:55.606Z,29.97
2018-09-23T06:58:24.296Z,28.60
2018-09-23T07:00:52.835Z,27.83
2018-09-23T07:03:21.307Z,27.87
2018-09-23T07:05:49.947Z,28.90
2018-09-23T07:08:18.385Z,28.23
2018-09-23T07:10:46.883Z,27.20
2018-09-23T07:13:15.402Z,28.20
2018-09-23T07:15:43.839Z,28.17
2018-09-23T07:18:12.395Z,27.63
2018-09-23T07:20:40.814Z,27.70
2018-09-23T07:23:09.317Z,26.97
2018-09-23T07:25:37.782Z,28.43
2018-09-23T07:28:06.255Z,30.23
2018-09-23T07:30:34.689Z,27.20
2018-09-23T07:33:03.091Z,27.97
2018-09-23T07:35:31.861Z,30.07
2018-09-23T07:38:00.353Z,30.93
2018-09-23T07:40:28.843Z,30.77
2018-09-23T07:42:57.517Z,30.40
2018-09-23T07:45:26.035Z,28.13
2018-09-23T07:47:54.601Z,28.87
2018-09-23T07:50:23.081Z,31.23
2018-09-23T07:52:51.852Z,31.60
2018-09-23T07:55:20.463Z,28.37
2018-09-23T07:57:49.030Z,29.90
2018-09-23T08:00:17.463Z,31.33
2018-09-23T08:02:45.952Z,29.50
2018-09-23T08:05:14.666Z,29.87
2018-09-23T08:07:43.129Z,31.53
2018-09-23T08:10:11.753Z,30.97
2018-09-23T08:12:40.439Z,28.77
2018-09-23T08:15:09.546Z,29.93
2018-09-23T08:17:38.023Z,28.87
2018-09-23T08:20:06.679Z,29.40
2018-09-23T08:22:35.178Z,27.93
2018-09-23T08:25:03.686Z,27.43
2018-09-23T08:27:32.224Z,28.70
2018-09-23T08:30:01.237Z,27.27
2018-09-23T08:32:29.821Z,27.33
2018-09-23T08:34:58.414Z,28.67
2018-09-23T08:37:26.964Z,28.43
2018-09-23T08:39:55.369Z,26.50
2018-09-23T08:42:24.114Z,26.20
2018-09-23T08:44:52.572Z,26.63
2018-09-23T08:47:20.980Z,26.77
2018-09-23T08:49:49.466Z,26.20
2018-09-23T08:52:17.975Z,26.43
2018-09-23T08:54:46.624Z,26.17
2018-09-23T08:57:15.112Z,27.00
2018-09-23T08:59:43.625Z,28.83
2018-09-23T09:02:12.174Z,27.10
2018-09-23T09:04:40.743Z,27.23
2018-09-23T09:07:09.182Z,25.53
2018-09-23T09:09:38.044Z,25.37
2018-09-23T09:12:06.899Z,24.87
2018-09-23T09:14:35.376Z,27.53
2018-09-23T09:17:04.153Z,26.43
2018-09-23T09:19:33.103Z,27.47
2018-09-23T09:22:01.562Z,27.73
2018-09-23T09:24:30.184Z,25.63
2018-09-23T09:26:58.696Z,26.20
2018-09-23T09:29:27.208Z,27.23
2018-09-23T09:31:55.761Z,26.47
2018-09-23T09:34:24.575Z,23.30
2018-09-23T09:36:53.056Z,25.20
2018-09-23T09:39:21.709Z,22.60
2018-09-23T09:41:50.438Z,22.27
2018-09-23T09:44:18.924Z,22.43
2018-09-23T09:46:47.464Z,21.33
2018-09-23T09:49:16.005Z,20.27
2018-09-23T09:51:44.489Z,20.03
2018-09-23T09:54:13.067Z,20.27
2018-09-23T09:56:41.599Z,21.10
2018-09-23T09:59:10.264Z,20.97
2018-09-23T10:01:38.853Z,21.10
2018-09-23T10:04:07.986Z,21.37
2018-09-23T10:06:36.545Z,21.63
2018-09-23T10:09:08.414Z,21.40
2018-09-23T10:11:36.969Z,19.23
2018-09-23T10:14:05.426Z,21.43
2018-09-23T10:16:34.085Z,20.60
2018-09-23T10:19:02.592Z,20.33
2018-09-23T10:21:31.193Z,21.27
2018-09-23T10:23:59.732Z,18.90
2018-09-23T10:26:28.374Z,19.93
2018-09-23T10:28:57.643Z,18.67
2018-09-23T10:31:27.818Z,19.93
2018-09-23T10:33:57.827Z,19.70
2018-09-23T10:36:28.122Z,19.13
2018-09-23T10:39:00.929Z,19.50
2018-09-23T10:41:29.382Z,19.40
2018-09-23T10:43:57.899Z,19.07
2018-09-23T10:46:26.648Z,17.87
2018-09-23T10:48:55.172Z,18.23
2018-09-23T10:51:23.881Z,18.17
2018-09-23T10:53:52.605Z,16.97
2018-09-23T10:56:23.216Z,18.30
2018-09-23T10:58:51.896Z,18.07
2018-09-23T11:01:20.676Z,17.67
2018-09-23T11:03:49.905Z,19.07
2018-09-23T11:06:18.663Z,17.90
2018-09-23T11:08:47.482Z,18.43
2018-09-23T11:11:16.666Z,17.33
2018-09-23T11:13:45.357Z,19.50
2018-09-23T11:16:14.424Z,19.27
2018-09-23T11:18:43.115Z,17.27
2018-09-23T11:21:12.065Z,18.40
2018-09-23T11:23:41.241Z,17.70
2018-09-23T11:26:10.316Z,17.57
2018-09-23T11:28:39.552Z,18.33
2018-09-23T11:31:08.587Z,18.77
2018-09-23T11:33:38.014Z,16.40
2018-09-23T11:36:07.906Z,16.50
2018-09-23T11:38:36.823Z,17.20
2018-09-23T11:41:05.921Z,15.57
2018-09-23T11:43:35.113Z,16.93
2018-09-23T11:46:04.269Z,18.23
2018-09-23T11:48:32.581Z,16.37
2018-09-23T11:51:01.218Z,15.67
2018-09-23T11:53:29.611Z,16.53
2018-09-23T11:55:58.324Z,14.80
2018-09-23T11:58:27.103Z,15.47
2018-09-23T12:00:55.791Z,14.27
2018-09-23T12:03:24.353Z,15.73
2018-09-23T12:05:53.004Z,14.90
2018-09-23T12:08:21.363Z,14.90
2018-09-23T12:10:49.795Z,14.10
2018-09-23T12:13:18.301Z,13.80
2018-09-23T12:15:46.828Z,14.77
2018-09-23T12:18:15.508Z,15.40
2018-09-23T12:20:44.141Z,14.93
2018-09-23T12:23:12.657Z,14.87
2018-09-23T12:25:41.277Z,15.10
2018-09-23T12:28:09.894Z,15.10
2018-09-23T12:30:38.711Z,13.70
2018-09-23T12:33:07.291Z,15.03
2018-09-23T12:35:36.041Z,13.77
2018-09-23T12:38:04.616Z,15.13
2018-09-23T12:40:33.204Z,14.10
2018-09-23T12:43:01.784Z,13.63
2018-09-23T12:45:30.408Z,13.47
2018-09-23T12:47:59.111Z,13.13
2018-09-23T12:50:27.725Z,13.43
2018-09-23T12:52:56.601Z,15.27
2018-09-23T12:55:25.305Z,16.13
2018-09-23T12:57:53.978Z,14.87
2018-09-23T13:00:22.772Z,14.27
2018-09-23T13:02:51.763Z,9.47
2018-09-23T13:05:20.420Z,8.67
2018-09-23T13:07:49.292Z,7.80
2018-09-23T13:10:17.866Z,7.70
2018-09-23T13:12:46.569Z,7.37
2018-09-23T13:15:15.408Z,4.80
2018-09-23T13:17:44.329Z,5.53
2018-09-23T13:20:12.883Z,5.13
2018-09-23T13:22:41.950Z,4.20
2018-09-23T13:25:10.612Z,4.83
2018-09-23T13:27:39.238Z,4.20
2018-09-23T13:30:07.887Z,4.47
2018-09-23T13:32:36.564Z,3.40
2018-09-23T13:35:05.297Z,4.17
2018-09-23T13:37:34.022Z,3.77
2018-09-23T13:40:02.956Z,5.43
2018-09-23T13:42:31.770Z,24.30
2018-09-23T13:45:00.318Z,23.13
2018-09-23T13:47:29.130Z,12.97
2018-09-23T13:49:57.685Z,7.47
2018-09-23T13:52:26.281Z,5.70
2018-09-23T13:54:55.141Z,4.93
2018-09-23T13:57:23.867Z,5.00
2018-09-23T13:59:52.600Z,6.40
2018-09-23T14:02:21.236Z,6.40
2018-09-23T14:04:50.910Z,6.30
2018-09-23T14:07:19.954Z,7.70
2018-09-23T14:09:48.765Z,10.97
2018-09-23T14:12:17.355Z,7.77
2018-09-23T14:14:45.879Z,6.30
2018-09-23T14:17:14.419Z,4.97
2018-09-23T14:19:43.076Z,5.23
2018-09-23T14:22:11.717Z,7.63
2018-09-23T14:24:40.460Z,5.30
2018-09-23T14:27:08.999Z,6.33
2018-09-23T14:29:37.628Z,4.50
2018-09-23T14:32:06.190Z,6.83
2018-09-23T14:34:34.668Z,5.87
2018-09-23T14:37:03.234Z,4.50
2018-09-23T14:39:31.894Z,5.50
2018-09-23T14:42:00.583Z,4.27
2018-09-23T14:44:29.155Z,7.40
2018-09-23T14:46:57.605Z,7.73
2018-09-23T14:49:26.562Z,10.50
2018-09-23T14:51:55.148Z,6.90
2018-09-23T14:54:24.024Z,5.73
2018-09-23T14:56:52.540Z,5.30
2018-09-23T14:59:21.242Z,6.17
2018-09-23T15:01:49.908Z,5.30
2018-09-23T15:04:18.450Z,5.33
2018-09-23T15:06:47.107Z,4.97
2018-09-23T15:09:16.524Z,4.27
2018-09-23T15:11:45.158Z,3.97
2018-09-23T15:14:13.781Z,4.60
2018-09-23T15:16:42.876Z,5.03
2018-09-23T15:19:11.415Z,4.03
2018-09-23T15:21:40.143Z,3.37
2018-09-23T15:24:08.683Z,4.13
2018-09-23T15:26:37.399Z,3.80
2018-09-23T15:29:05.994Z,3.87
2018-09-23T15:31:34.579Z,5.07
2018-09-23T15:34:03.274Z,5.20
2018-09-23T15:36:31.953Z,5.30
2018-09-23T15:39:00.888Z,6.63
2018-09-23T15:41:29.797Z,5.93
2018-09-23T15:43:58.750Z,6.47
2018-09-23T15:46:27.683Z,8.03
2018-09-23T15:48:56.370Z,7.53
2018-09-23T15:51:25.202Z,7.50
2018-09-23T15:53:54.151Z,8.43
2018-09-23T15:56:22.844Z,7.10
2018-09-23T15:58:51.529Z,8.40
2018-09-23T16:01:20.136Z,6.47
2018-09-23T16:03:48.981Z,5.93
2018-09-23T16:06:17.505Z,7.40
2018-09-23T16:08:46.782Z,8.30
2018-09-23T16:11:15.901Z,7.70
2018-09-23T16:13:45.445Z,7.67
2018-09-23T16:16:14.321Z,7.80
2018-09-23T16:18:43.998Z,8.93
2018-09-23T16:21:13.353Z,9.60
2018-09-23T16:23:42.356Z,10.60
2018-09-23T16:26:11.798Z,11.57
2018-09-23T16:28:41.323Z,13.57
2018-09-23T16:31:10.209Z,21.83
2018-09-23T16:33:38.790Z,18.00
2018-09-23T16:38:43.370Z,9.60
2018-09-23T16:41:14.847Z,8.17
2018-09-23T16:46:27.402Z,6.73
2018-09-23T16:48:56.415Z,6.50
2018-09-23T16:51:25.272Z,6.57
2018-09-23T16:53:53.919Z,5.93
2018-09-23T16:56:23.056Z,5.93
2018-09-23T16:58:52.536Z,5.10
2018-09-23T17:01:21.273Z,5.63
2018-09-23T17:03:50.404Z,5.33
2018-09-23T17:06:20.146Z,5.17
2018-09-23T17:08:49.130Z,7.07
2018-09-23T17:11:25.890Z,5.73
2018-09-23T17:13:54.502Z,5.43
2018-09-23T17:16:23.404Z,5.50
2018-09-23T17:18:52.371Z,5.20
2018-09-23T17:21:21.506Z,5.23
2018-09-23T17:23:50.666Z,4.97
2018-09-23T17:26:19.350Z,4.40
2018-09-23T17:28:49.606Z,4.70
2018-09-23T17:31:18.278Z,5.73
2018-09-23T17:33:48.655Z,5.13
2018-09-23T17:36:17.938Z,6.03
2018-09-23T17:38:46.803Z,5.63
2018-09-23T17:41:15.809Z,11.17
2018-09-23T17:43:44.601Z,7.43
2018-09-23T17:46:12.900Z,11.60
2018-09-23T17:48:41.700Z,17.20
2018-09-23T17:51:10.411Z,8.00
2018-09-23T17:53:38.911Z,8.33
2018-09-23T17:56:07.752Z,20.17
2018-09-23T17:58:36.714Z,15.20
2018-09-23T18:01:05.545Z,10.23
2018-09-23T18:03:34.116Z,8.07
2018-09-23T18:06:02.675Z,5.17
2018-09-23T18:08:30.964Z,4.40
2018-09-23T18:11:07.279Z,3.60
2018-09-23T18:13:35.685Z,3.73
2018-09-23T18:16:04.270Z,2.90
2018-09-23T18:18:32.926Z,4.10
2018-09-23T18:21:02.073Z,2.93
2018-09-23T18:23:31.225Z,3.43
2018-09-23T18:26:00.219Z,3.27
2018-09-23T18:28:28.822Z,4.10
2018-09-23T18:30:57.256Z,3.87
2018-09-23T18:33:25.938Z,3.27
2018-09-23T18:35:54.314Z,3.07
2018-09-23T18:38:23.292Z,2.80
2018-09-23T18:40:52.254Z,2.57
2018-09-23T18:43:20.834Z,3.90
2018-09-23T18:45:49.308Z,3.40
2018-09-23T18:48:18.981Z,3.13
2018-09-23T18:50:47.856Z,3.10
2018-09-23T18:53:23.388Z,2.80
2018-09-23T18:55:53.559Z,3.40
2018-09-23T18:58:22.976Z,3.60
2018-09-23T19:00:52.808Z,2.60
2018-09-23T19:03:21.708Z,3.00
2018-09-23T19:05:50.905Z,2.97
2018-09-23T19:08:20.253Z,3.00
2018-09-23T19:10:49.068Z,2.20
2018-09-23T19:13:23.516Z,3.47
2018-09-23T19:15:57.649Z,2.80
2018-09-23T19:18:27.009Z,2.40
2018-09-23T19:20:56.534Z,3.73
2018-09-23T19:23:26.243Z,2.47
2018-09-23T19:25:55.494Z,3.53
2018-09-23T19:28:25.042Z,3.10
2018-09-23T19:30:54.253Z,2.63
2018-09-23T19:33:23.222Z,2.70
2018-09-23T19:35:52.148Z,2.90
2018-09-23T19:38:21.164Z,3.60
2018-09-23T19:40:49.900Z,3.50
2018-09-23T19:43:19.143Z,3.00
2018-09-23T19:45:48.400Z,3.97
2018-09-23T19:48:17.457Z,2.63
2018-09-23T19:50:46.848Z,3.30
2018-09-23T19:53:16.230Z,3.20
2018-09-23T19:55:45.526Z,3.33
2018-09-23T19:58:14.662Z,2.70
2018-09-23T20:00:43.802Z,2.97
2018-09-23T20:03:13.013Z,3.00
2018-09-23T20:05:42.330Z,2.60
2018-09-23T20:08:11.556Z,3.07
2018-09-23T20:10:40.695Z,2.40
2018-09-23T20:13:09.776Z,2.40
2018-09-23T20:15:39.210Z,2.67
2018-09-23T20:18:09.273Z,2.80
2018-09-23T20:20:38.508Z,2.17
2018-09-23T20:23:07.889Z,2.37
2018-09-23T20:25:37.436Z,2.00
2018-09-23T20:28:07.704Z,2.03
2018-09-23T20:30:39.385Z,1.90
2018-09-23T20:33:08.293Z,1.67
2018-09-23T20:35:37.206Z,1.57
2018-09-23T20:38:06.740Z,2.10
2018-09-23T20:40:35.794Z,2.23
2018-09-23T20:43:04.852Z,1.60
2018-09-23T20:45:33.785Z,1.33
2018-09-23T20:48:03.540Z,2.10
2018-09-23T20:50:32.619Z,1.93
2018-09-23T20:53:02.670Z,1.20
2018-09-23T20:55:31.329Z,1.43
2018-09-23T20:58:00.258Z,1.73
2018-09-23T21:00:29.075Z,1.57
2018-09-23T21:02:57.822Z,1.50
2018-09-23T21:05:26.462Z,1.40
2018-09-23T21:07:55.290Z,1.80
2018-09-23T21:10:24.172Z,1.37
2018-09-23T21:12:52.810Z,1.80
2018-09-23T21:15:21.896Z,1.47
2018-09-23T21:17:50.764Z,1.67
2018-09-23T21:20:19.450Z,1.37
2018-09-23T21:22:47.921Z,1.37
2018-09-23T21:25:17.009Z,1.40
2018-09-23T21:27:45.682Z,1.40
2018-09-23T21:30:14.145Z,1.53
2018-09-23T21:32:42.794Z,1.43
2018-09-23T21:35:11.471Z,1.53
2018-09-23T21:37:40.088Z,1.33
2018-09-23T21:40:09.114Z,1.70
2018-09-23T21:42:37.872Z,1.37
2018-09-23T21:45:06.388Z,1.30
2018-09-23T21:47:35.646Z,1.30
2018-09-23T21:50:04.032Z,1.20
2018-09-23T21:52:32.471Z,1.40
2018-09-23T21:55:01.063Z,1.63
2018-09-23T21:57:29.542Z,1.40
2018-09-23T21:59:58.053Z,1.30
2018-09-23T22:02:26.699Z,1.27
2018-09-23T22:04:55.582Z,1.27
2018-09-23T22:07:24.083Z,1.70
2018-09-23T22:09:52.455Z,1.20
2018-09-23T22:12:21.693Z,1.50
2018-09-23T22:14:50.120Z,1.50
2018-09-23T22:17:18.730Z,1.30
2018-09-23T22:19:47.462Z,1.40
2018-09-23T22:22:15.916Z,1.27
2018-09-23T22:24:44.361Z,1.10
2018-09-23T22:27:12.927Z,1.30
2018-09-23T22:29:41.435Z,1.10
2018-09-23T22:32:10.072Z,0.90
2018-09-23T22:34:38.457Z,1.30
2018-09-23T22:37:07.426Z,1.40
2018-09-23T22:39:35.816Z,1.00
2018-09-23T22:42:04.336Z,1.00
2018-09-23T22:44:33.050Z,1.20
2018-09-23T22:47:01.448Z,1.70
2018-09-23T22:49:30.036Z,1.40
2018-09-23T22:51:58.648Z,1.67
2018-09-23T22:54:27.112Z,1.30
2018-09-23T22:56:55.751Z,1.77
2018-09-23T22:59:24.176Z,1.00
2018-09-23T23:01:52.554Z,1.40
2018-09-23T23:04:21.005Z,1.33
2018-09-23T23:06:49.609Z,1.70
2018-09-23T23:09:18.050Z,1.33
2018-09-23T23:11:46.400Z,1.60
2018-09-23T23:14:14.824Z,1.30
2018-09-23T23:16:43.212Z,1.87
2018-09-23T23:19:11.587Z,1.50
2018-09-23T23:21:39.940Z,1.80
2018-09-23T23:24:08.328Z,1.57
2018-09-23T23:26:36.722Z,1.10
2018-09-23T23:29:05.076Z,1.23
2018-09-23T23:31:33.479Z,1.50
2018-09-23T23:34:02.109Z,1.07
2018-09-23T23:36:30.435Z,1.00
2018-09-23T23:38:58.835Z,1.73
2018-09-23T23:41:27.324Z,1.43
2018-09-23T23:43:55.723Z,1.53
2018-09-23T23:46:24.111Z,1.30
2018-09-23T23:48:52.443Z,1.07
2018-09-23T23:51:20.820Z,1.43
2018-09-23T23:53:49.186Z,1.27
2018-09-23T23:56:17.592Z,1.30
2018-09-23T23:58:45.939Z,1.47
